createdAt,value
2019-03-15T00:02:04.816Z,67.81
2019-03-15T00:04:34.255Z,68.00
2019-03-15T00:07:03.720Z,67.62
2019-03-15T00:09:33.157Z,67.21
2019-03-15T00:12:02.694Z,67.28
2019-03-15T00:14:32.156Z,67.13
2019-03-15T00:17:01.760Z,67.30
2019-03-15T00:19:31.361Z,67.18
2019-03-15T00:22:01.075Z,66.92
2019-03-15T00:24:30.603Z,66.97
2019-03-15T00:27:00.211Z,67.30
2019-03-15T00:29:29.816Z,67.46
2019-03-15T00:31:59.280Z,67.34
2019-03-15T00:34:28.732Z,67.01
2019-03-15T00:36:58.196Z,66.73
2019-03-15T00:39:27.738Z,66.73
2019-03-15T00:41:57.257Z,66.57
2019-03-15T00:44:27.543Z,66.67
2019-03-15T00:46:57.007Z,66.54
2019-03-15T00:49:26.469Z,66.83
2019-03-15T00:51:56.088Z,66.77
2019-03-15T00:54:25.675Z,66.89
2019-03-15T00:56:55.160Z,66.96
2019-03-15T00:59:24.659Z,67.29
2019-03-15T01:01:54.099Z,66.76
2019-03-15T01:04:23.554Z,66.76
2019-03-15T01:06:53.025Z,66.73
2019-03-15T01:09:22.549Z,66.63
2019-03-15T01:11:52.145Z,66.48
2019-03-15T01:14:21.735Z,66.96
2019-03-15T01:16:51.321Z,66.76
2019-03-15T01:19:21.011Z,66.64
2019-03-15T01:21:50.490Z,66.87
2019-03-15T01:24:20.072Z,66.90
2019-03-15T01:26:49.608Z,66.86
2019-03-15T01:29:19.287Z,66.26
2019-03-15T01:31:48.535Z,66.35
2019-03-15T01:34:18.020Z,66.65
2019-03-15T01:39:08.395Z,67.20
2019-03-15T01:41:37.824Z,67.58
2019-03-15T01:44:07.374Z,67.62
2019-03-15T01:46:36.796Z,67.88
2019-03-15T01:49:06.289Z,67.53
2019-03-15T01:51:35.726Z,66.88
2019-03-15T01:54:05.293Z,66.87
2019-03-15T01:56:34.807Z,67.01
2019-03-15T01:59:04.351Z,66.86
2019-03-15T02:01:33.795Z,66.76
2019-03-15T02:04:03.325Z,66.58
2019-03-15T02:06:32.873Z,66.26
2019-03-15T02:09:02.525Z,66.12
2019-03-15T02:11:32.142Z,66.04
2019-03-15T02:14:01.779Z,65.81
2019-03-15T02:16:31.433Z,65.80
2019-03-15T02:19:01.071Z,65.95
2019-03-15T02:21:30.583Z,65.86
2019-03-15T02:24:00.138Z,65.82
2019-03-15T02:26:29.698Z,65.77
2019-03-15T02:28:59.213Z,65.57
2019-03-15T02:31:28.699Z,65.35
2019-03-15T02:33:58.277Z,65.18
2019-03-15T02:36:27.744Z,64.97
2019-03-15T02:38:57.196Z,65.17
2019-03-15T02:41:26.675Z,65.10
2019-03-15T02:43:56.101Z,65.28
2019-03-15T02:46:25.931Z,65.00
2019-03-15T02:48:55.901Z,64.76
2019-03-15T02:51:25.366Z,65.11
2019-03-15T02:53:54.839Z,65.04
2019-03-15T02:56:24.313Z,64.94
2019-03-15T02:58:54.188Z,65.31
2019-03-15T03:01:23.774Z,65.52
2019-03-15T03:03:53.193Z,65.92
2019-03-15T03:06:22.727Z,66.06
2019-03-15T03:08:52.755Z,66.21
2019-03-15T03:11:22.352Z,66.02
2019-03-15T03:13:51.796Z,66.15
2019-03-15T03:16:21.394Z,66.20
2019-03-15T03:18:50.933Z,66.41
2019-03-15T03:21:20.551Z,66.16
2019-03-15T03:23:50.064Z,66.37
2019-03-15T03:26:19.535Z,67.04
2019-03-15T03:28:51.558Z,66.91
2019-03-15T03:31:20.925Z,66.62
2019-03-15T03:33:50.561Z,66.94
2019-03-15T03:36:20.024Z,67.53
2019-03-15T03:38:49.678Z,67.53
2019-03-15T03:41:19.143Z,67.26
2019-03-15T03:43:48.578Z,66.67
2019-03-15T03:46:18.015Z,67.11
2019-03-15T03:48:47.580Z,66.94
2019-03-15T03:51:17.016Z,67.23
2019-03-15T03:53:46.492Z,67.60
2019-03-15T03:56:16.086Z,67.36
2019-03-15T03:58:45.622Z,67.24
2019-03-15T04:01:15.131Z,67.48
2019-03-15T04:03:44.673Z,67.68
2019-03-15T04:06:14.341Z,67.72
2019-03-15T04:08:44.562Z,67.87
2019-03-15T04:11:14.164Z,68.01
2019-03-15T04:13:43.774Z,68.00
2019-03-15T04:16:13.389Z,67.97
2019-03-15T04:18:42.929Z,68.51
2019-03-15T04:21:12.696Z,68.65
2019-03-15T04:23:41.989Z,68.83
2019-03-15T04:26:11.701Z,68.56
2019-03-15T04:28:41.342Z,68.24
2019-03-15T04:31:11.111Z,68.17
2019-03-15T04:33:40.716Z,68.20
2019-03-15T04:36:10.244Z,68.01
2019-03-15T04:38:39.819Z,68.13
2019-03-15T04:41:09.272Z,68.05
2019-03-15T04:43:38.830Z,68.10
2019-03-15T04:46:08.348Z,68.10
2019-03-15T04:48:38.377Z,68.50
2019-03-15T04:51:07.896Z,68.37
2019-03-15T04:53:37.316Z,68.67
2019-03-15T04:56:06.756Z,68.83
2019-03-15T04:58:36.216Z,68.70
2019-03-15T05:01:05.728Z,68.32
2019-03-15T05:03:35.205Z,68.24
2019-03-15T05:06:04.835Z,68.32
2019-03-15T05:08:34.343Z,68.51
2019-03-15T05:11:03.932Z,68.21
2019-03-15T05:13:33.379Z,68.73
2019-03-15T05:16:02.934Z,68.50
2019-03-15T05:18:32.646Z,67.81
2019-03-15T05:21:02.255Z,68.39
2019-03-15T05:23:31.778Z,67.69
2019-03-15T05:26:01.329Z,67.28
2019-03-15T05:28:30.976Z,66.99
2019-03-15T05:31:00.556Z,67.40
2019-03-15T05:33:30.087Z,67.39
2019-03-15T05:35:59.709Z,67.49
2019-03-15T05:38:29.349Z,67.73
2019-03-15T05:40:59.512Z,67.68
2019-03-15T05:43:28.910Z,67.90
2019-03-15T05:45:58.456Z,67.65
2019-03-15T05:48:27.935Z,68.04
2019-03-15T05:50:57.423Z,68.37
2019-03-15T05:53:27.005Z,68.76
2019-03-15T05:55:56.650Z,68.94
2019-03-15T05:58:26.875Z,68.64
2019-03-15T06:00:56.355Z,69.28
2019-03-15T06:03:25.874Z,69.66
2019-03-15T06:05:55.332Z,69.94
2019-03-15T06:08:27.426Z,69.91
2019-03-15T06:10:55.960Z,70.07
2019-03-15T06:13:25.439Z,70.29
2019-03-15T06:15:54.973Z,70.88
2019-03-15T06:18:24.244Z,71.57
2019-03-15T06:20:53.756Z,71.43
2019-03-15T06:23:23.282Z,71.67
2019-03-15T06:25:52.556Z,72.40
2019-03-15T06:28:22.002Z,72.69
2019-03-15T06:30:51.640Z,72.87
2019-03-15T06:33:20.890Z,72.32
2019-03-15T06:35:50.451Z,72.70
2019-03-15T06:38:19.990Z,72.76
2019-03-15T06:40:49.547Z,72.47
2019-03-15T06:43:19.022Z,72.58
2019-03-15T06:45:48.547Z,72.54
2019-03-15T06:48:18.025Z,72.59
2019-03-15T06:50:47.493Z,72.52
2019-03-15T06:53:16.971Z,72.60
2019-03-15T06:55:46.618Z,72.83
2019-03-15T06:58:16.093Z,73.05
2019-03-15T07:00:45.634Z,72.78
2019-03-15T07:03:55.134Z,72.55
2019-03-15T07:06:24.588Z,72.77
2019-03-15T07:08:54.121Z,71.60
2019-03-15T07:11:23.603Z,72.04
2019-03-15T07:13:53.106Z,72.16
2019-03-15T07:16:22.710Z,72.31
2019-03-15T07:18:52.325Z,72.65
2019-03-15T07:21:21.839Z,72.56
2019-03-15T07:23:51.550Z,72.35
2019-03-15T07:26:21.065Z,72.07
2019-03-15T07:28:50.658Z,71.89
2019-03-15T07:31:20.226Z,71.53
2019-03-15T07:33:49.860Z,72.17
2019-03-15T07:36:19.533Z,72.89
2019-03-15T07:38:49.026Z,72.89
2019-03-15T07:41:18.630Z,72.65
2019-03-15T07:43:48.090Z,72.42
2019-03-15T07:46:17.033Z,72.53
2019-03-15T07:48:46.522Z,72.52
2019-03-15T07:51:15.976Z,72.94
2019-03-15T07:53:45.549Z,73.76
2019-03-15T07:56:15.007Z,73.79
2019-03-15T07:58:44.564Z,74.00
2019-03-15T08:01:14.103Z,74.04
2019-03-15T08:03:43.756Z,74.21
2019-03-15T08:06:13.212Z,73.82
2019-03-15T08:08:42.821Z,74.02
2019-03-15T08:11:12.394Z,74.78
2019-03-15T08:13:42.012Z,75.05
2019-03-15T08:16:11.605Z,75.15
2019-03-15T08:18:41.168Z,75.23
2019-03-15T08:21:10.846Z,75.84
2019-03-15T08:23:40.210Z,76.17
2019-03-15T08:26:10.130Z,76.03
2019-03-15T08:28:39.706Z,76.06
2019-03-15T08:31:09.407Z,75.95
2019-03-15T08:33:38.871Z,75.69
2019-03-15T08:36:08.990Z,76.61
2019-03-15T08:38:47.525Z,76.37
2019-03-15T08:41:09.847Z,75.96
2019-03-15T08:43:39.449Z,75.95
2019-03-15T08:46:09.142Z,76.17
2019-03-15T08:48:38.590Z,76.55
2019-03-15T08:51:10.610Z,76.77
2019-03-15T08:53:40.055Z,76.63
2019-03-15T08:56:09.858Z,76.28
2019-03-15T08:58:39.475Z,75.68
2019-03-15T09:01:10.931Z,75.42
2019-03-15T09:03:40.444Z,75.45
2019-03-15T09:06:10.209Z,75.24
2019-03-15T09:08:39.758Z,74.87
2019-03-15T09:11:09.812Z,75.09
2019-03-15T09:13:39.280Z,75.46
2019-03-15T09:16:09.013Z,75.51
2019-03-15T09:18:38.449Z,75.79
2019-03-15T09:21:08.264Z,75.83
2019-03-15T09:23:37.861Z,75.73
2019-03-15T09:26:10.334Z,76.00
2019-03-15T09:28:38.940Z,76.81
2019-03-15T09:31:08.878Z,76.56
2019-03-15T09:33:38.432Z,76.67
2019-03-15T09:36:08.478Z,76.57
2019-03-15T09:38:37.905Z,76.58
2019-03-15T09:41:08.111Z,75.49
2019-03-15T09:43:37.838Z,75.59
2019-03-15T09:46:07.468Z,75.71
2019-03-15T09:48:37.175Z,75.80
2019-03-15T09:51:06.707Z,75.47
2019-03-15T09:53:36.229Z,75.38
2019-03-15T09:56:05.828Z,75.48
2019-03-15T09:58:35.540Z,75.58
2019-03-15T10:01:05.263Z,75.00
2019-03-15T10:03:35.159Z,75.46
2019-03-15T10:06:14.298Z,75.44
2019-03-15T10:08:35.883Z,75.57
2019-03-15T10:11:05.540Z,75.63
2019-03-15T10:13:34.994Z,76.18
2019-03-15T10:16:04.680Z,75.95
2019-03-15T10:18:34.256Z,74.54
2019-03-15T10:21:04.051Z,74.41
2019-03-15T10:23:33.550Z,74.61
2019-03-15T10:26:03.161Z,75.16
2019-03-15T10:28:32.775Z,74.85
2019-03-15T10:31:02.223Z,74.78
2019-03-15T10:33:31.823Z,73.82
2019-03-15T10:36:01.416Z,74.50
2019-03-15T10:38:31.084Z,74.32
2019-03-15T10:41:01.424Z,74.36
2019-03-15T10:43:31.181Z,74.48
2019-03-15T10:46:00.808Z,74.80
2019-03-15T10:48:30.387Z,75.09
2019-03-15T10:50:59.929Z,74.58
2019-03-15T10:53:29.588Z,73.87
2019-03-15T10:56:00.592Z,74.14
2019-03-15T10:58:30.139Z,75.38
2019-03-15T11:01:00.283Z,75.12
2019-03-15T11:03:30.349Z,74.29
2019-03-15T11:06:00.032Z,73.83
2019-03-15T11:08:30.089Z,73.48
2019-03-15T11:11:00.361Z,72.58
2019-03-15T11:13:30.200Z,71.95
2019-03-15T11:16:00.426Z,72.18
2019-03-15T11:18:30.648Z,71.82
2019-03-15T11:21:00.887Z,73.79
2019-03-15T11:23:31.298Z,73.79
2019-03-15T11:26:13.119Z,74.26
2019-03-15T11:28:33.281Z,74.00
2019-03-15T11:31:02.732Z,73.87
2019-03-15T11:33:32.256Z,73.25
2019-03-15T11:36:01.870Z,73.43
2019-03-15T11:38:31.452Z,74.45
2019-03-15T11:41:01.988Z,74.03
2019-03-15T11:43:31.594Z,74.27
2019-03-15T11:46:01.307Z,74.16
2019-03-15T11:48:30.643Z,74.68
2019-03-15T11:51:00.348Z,74.65
2019-03-15T11:53:29.941Z,74.52
2019-03-15T11:55:59.520Z,74.37
2019-03-15T11:58:29.044Z,74.71
2019-03-15T12:00:58.497Z,74.37
2019-03-15T12:03:28.072Z,74.53
2019-03-15T12:05:57.525Z,74.38
2019-03-15T12:08:26.977Z,73.87
2019-03-15T12:10:56.442Z,73.84
2019-03-15T12:13:25.902Z,73.78
2019-03-15T12:15:55.389Z,73.96
2019-03-15T12:18:24.917Z,73.99
2019-03-15T12:20:54.386Z,73.23
2019-03-15T12:23:23.867Z,72.84
2019-03-15T12:25:54.865Z,72.16
2019-03-15T12:28:24.335Z,72.01
2019-03-15T12:30:53.798Z,71.70
2019-03-15T12:33:23.239Z,71.70
2019-03-15T12:35:52.739Z,71.13
2019-03-15T12:38:22.355Z,70.73
2019-03-15T12:40:51.549Z,70.48
2019-03-15T12:43:21.178Z,70.05
2019-03-15T12:45:50.781Z,69.90
2019-03-15T12:48:20.295Z,69.83
2019-03-15T12:50:49.841Z,69.80
2019-03-15T12:53:19.441Z,69.75
2019-03-15T12:55:48.936Z,69.30
2019-03-15T12:58:18.425Z,69.09
2019-03-15T13:00:47.869Z,69.04
2019-03-15T13:03:17.365Z,69.02
2019-03-15T13:05:46.820Z,68.74
2019-03-15T13:08:16.378Z,68.64
2019-03-15T13:10:45.829Z,68.56
2019-03-15T13:13:15.320Z,67.87
2019-03-15T13:15:44.779Z,67.70
2019-03-15T13:18:14.279Z,67.54
2019-03-15T13:20:43.734Z,67.08
2019-03-15T13:23:13.181Z,66.47
2019-03-15T13:25:42.706Z,66.33
2019-03-15T13:28:12.260Z,65.47
2019-03-15T13:30:41.710Z,65.21
2019-03-15T13:33:20.317Z,64.33
2019-03-15T13:35:42.410Z,64.46
2019-03-15T13:38:11.905Z,64.61
2019-03-15T13:40:41.514Z,64.44
2019-03-15T13:43:11.331Z,64.42
2019-03-15T13:45:41.015Z,64.44
2019-03-15T13:48:10.439Z,64.46
2019-03-15T13:50:39.988Z,64.32
2019-03-15T13:53:09.902Z,63.91
2019-03-15T13:55:39.485Z,63.90
2019-03-15T13:58:09.332Z,63.45
2019-03-15T14:00:38.725Z,63.38
2019-03-15T14:03:08.235Z,63.38
2019-03-15T14:05:37.661Z,63.16
2019-03-15T14:08:11.955Z,63.47
2019-03-15T14:13:53.370Z,62.58
2019-03-15T14:16:23.010Z,62.54
2019-03-15T14:18:52.615Z,61.97
2019-03-15T14:21:22.222Z,62.00
2019-03-15T14:23:51.720Z,62.15
2019-03-15T14:26:21.288Z,62.40
2019-03-15T14:28:50.973Z,62.60
2019-03-15T14:31:21.726Z,62.58
2019-03-15T14:33:51.384Z,62.76
2019-03-15T14:36:20.915Z,62.54
2019-03-15T14:38:50.760Z,62.58
2019-03-15T14:41:20.515Z,62.53
2019-03-15T14:43:50.042Z,62.67
2019-03-15T14:46:19.668Z,62.75
2019-03-15T14:48:49.100Z,62.24
2019-03-15T14:51:18.644Z,62.25
2019-03-15T14:53:48.035Z,62.13
2019-03-15T14:56:17.302Z,62.58
2019-03-15T14:58:46.740Z,62.78
2019-03-15T15:01:16.220Z,62.86
2019-03-15T15:03:45.734Z,62.66
2019-03-15T15:06:15.313Z,63.00
2019-03-15T15:08:44.776Z,62.83
2019-03-15T15:11:14.339Z,62.70
2019-03-15T15:13:43.781Z,62.82
2019-03-15T15:16:13.338Z,62.77
2019-03-15T15:18:42.921Z,62.93
2019-03-15T15:21:12.651Z,63.46
2019-03-15T15:23:42.107Z,63.38
2019-03-15T15:26:11.703Z,63.72
2019-03-15T15:28:41.422Z,63.69
2019-03-15T15:31:11.133Z,63.96
2019-03-15T15:33:40.762Z,64.12
2019-03-15T15:36:10.334Z,64.46
2019-03-15T15:38:40.003Z,64.81
2019-03-15T15:41:09.899Z,64.88
2019-03-15T15:43:39.531Z,65.04
2019-03-15T15:46:09.489Z,65.37
2019-03-15T15:48:38.913Z,65.20
2019-03-15T15:51:08.511Z,65.15
2019-03-15T15:53:37.927Z,64.89
2019-03-15T15:56:07.897Z,65.00
2019-03-15T15:58:37.381Z,65.34
2019-03-15T16:01:06.877Z,64.84
2019-03-15T16:03:36.287Z,64.88
2019-03-15T16:06:05.820Z,64.90
2019-03-15T16:08:35.423Z,65.01
2019-03-15T16:11:04.973Z,64.95
2019-03-15T16:13:34.413Z,64.73
2019-03-15T16:16:04.040Z,64.77
2019-03-15T16:18:34.102Z,64.94
2019-03-15T16:21:03.395Z,64.73
2019-03-15T16:23:32.909Z,65.07
2019-03-15T16:26:02.640Z,65.19
2019-03-15T16:28:35.853Z,64.91
2019-03-15T16:31:03.661Z,64.95
2019-03-15T16:33:33.120Z,65.27
2019-03-15T16:36:02.670Z,65.19
2019-03-15T16:38:32.268Z,65.37
2019-03-15T16:41:01.925Z,65.54
2019-03-15T16:43:31.628Z,65.74
2019-03-15T16:46:01.129Z,65.62
2019-03-15T16:48:30.291Z,65.63
2019-03-15T16:50:59.886Z,65.63
2019-03-15T16:53:29.167Z,65.24
2019-03-15T16:55:58.626Z,65.36
2019-03-15T16:58:28.798Z,65.50
2019-03-15T17:00:58.404Z,65.77
2019-03-15T17:03:27.972Z,65.86
2019-03-15T17:05:57.148Z,66.18
2019-03-15T17:08:27.976Z,65.87
2019-03-15T17:10:57.424Z,66.13
2019-03-15T17:13:26.689Z,66.21
2019-03-15T17:15:56.211Z,66.02
2019-03-15T17:18:26.081Z,66.18
2019-03-15T17:20:55.665Z,66.15
2019-03-15T17:23:25.138Z,66.36
2019-03-15T17:25:54.719Z,66.48
2019-03-15T17:28:24.152Z,66.74
2019-03-15T17:30:53.683Z,66.99
2019-03-15T17:33:23.309Z,67.02
2019-03-15T17:35:52.710Z,67.11
2019-03-15T17:38:22.832Z,67.00
2019-03-15T17:40:52.084Z,67.27
2019-03-15T17:43:21.806Z,67.58
2019-03-15T17:45:51.053Z,67.49
2019-03-15T17:48:20.705Z,67.45
2019-03-15T17:50:50.277Z,67.57
2019-03-15T17:53:19.899Z,67.68
2019-03-15T17:55:49.583Z,67.65
2019-03-15T17:58:20.098Z,67.55
2019-03-15T18:00:51.210Z,67.58
2019-03-15T18:03:21.992Z,67.54
2019-03-15T18:05:51.646Z,67.07
2019-03-15T18:08:21.593Z,67.09
2019-03-15T18:10:51.203Z,67.17
2019-03-15T18:13:20.922Z,67.00
2019-03-15T18:15:50.558Z,67.03
2019-03-15T18:18:20.179Z,66.94
2019-03-15T18:20:49.836Z,66.81
2019-03-15T18:23:19.473Z,67.27
2019-03-15T18:25:49.163Z,67.33
2019-03-15T18:28:18.713Z,67.65
2019-03-15T18:30:48.193Z,67.94
2019-03-15T18:33:17.743Z,68.12
2019-03-15T18:35:47.201Z,68.42
2019-03-15T18:38:16.651Z,68.89
2019-03-15T18:40:46.199Z,68.94
2019-03-15T18:43:15.778Z,69.04
2019-03-15T18:45:45.331Z,69.19
2019-03-15T18:48:15.003Z,69.62
2019-03-15T18:50:44.491Z,69.69
2019-03-15T18:53:14.073Z,69.94
2019-03-15T18:55:43.534Z,70.08
2019-03-15T18:58:13.140Z,70.25
2019-03-15T19:00:42.604Z,70.35
2019-03-15T19:03:12.486Z,70.28
2019-03-15T19:05:42.002Z,70.32
2019-03-15T19:08:11.992Z,70.58
2019-03-15T19:10:41.604Z,70.47
2019-03-15T19:13:11.658Z,70.63
2019-03-15T19:15:43.772Z,71.24
2019-03-15T19:18:12.836Z,71.42
2019-03-15T19:20:42.653Z,71.36
2019-03-15T19:23:12.605Z,71.50
2019-03-15T19:25:41.540Z,71.40
2019-03-15T19:28:11.606Z,71.62
2019-03-15T19:30:41.293Z,71.61
2019-03-15T19:33:10.824Z,71.87
2019-03-15T19:35:40.533Z,71.65
2019-03-15T19:38:09.987Z,71.54
2019-03-15T19:40:39.568Z,71.44
2019-03-15T19:43:09.049Z,71.92
2019-03-15T19:45:40.246Z,71.55
2019-03-15T19:48:09.547Z,71.92
2019-03-15T19:50:39.112Z,71.52
2019-03-15T19:53:08.656Z,71.41
2019-03-15T19:55:38.203Z,71.09
2019-03-15T19:58:07.734Z,70.77
2019-03-15T20:00:37.276Z,70.51
2019-03-15T20:03:06.818Z,70.52
2019-03-15T20:05:36.322Z,70.55
2019-03-15T20:08:05.839Z,70.26
2019-03-15T20:10:35.382Z,70.37
2019-03-15T20:13:04.898Z,70.36
2019-03-15T20:15:34.336Z,70.12
2019-03-15T20:18:03.985Z,70.12
2019-03-15T20:20:33.547Z,70.24
2019-03-15T20:23:03.081Z,70.09
2019-03-15T20:25:32.697Z,69.96
2019-03-15T20:28:04.073Z,69.85
2019-03-15T20:30:33.588Z,69.87
2019-03-15T20:33:03.201Z,69.87
2019-03-15T20:35:32.730Z,69.48
2019-03-15T20:38:02.467Z,69.53
2019-03-15T20:40:33.052Z,69.54
2019-03-15T20:43:02.510Z,69.61
2019-03-15T20:45:31.691Z,69.50
2019-03-15T20:48:01.308Z,69.64
2019-03-15T20:50:30.952Z,69.73
2019-03-15T20:53:08.629Z,69.57
2019-03-15T20:55:31.874Z,69.33
2019-03-15T20:58:01.473Z,69.32
2019-03-15T21:00:35.978Z,69.21
2019-03-15T21:03:02.228Z,69.30
2019-03-15T21:05:31.813Z,69.01
2019-03-15T21:08:01.484Z,69.33
2019-03-15T21:10:31.106Z,69.06
2019-03-15T21:13:00.661Z,69.38
2019-03-15T21:15:30.224Z,69.30
2019-03-15T21:17:59.809Z,69.16
2019-03-15T21:20:29.283Z,69.30
2019-03-15T21:22:58.826Z,69.20
2019-03-15T21:25:28.256Z,69.13
2019-03-15T21:27:57.764Z,69.09
2019-03-15T21:30:27.980Z,69.18
2019-03-15T21:32:57.503Z,69.10
2019-03-15T21:35:27.038Z,69.18
2019-03-15T21:37:56.494Z,68.90
2019-03-15T21:40:25.679Z,68.85
2019-03-15T21:42:55.273Z,68.49
2019-03-15T21:45:24.754Z,68.76
2019-03-15T21:51:09.827Z,68.71
2019-03-15T21:53:39.446Z,68.76
2019-03-15T21:56:09.620Z,68.87
2019-03-15T21:58:39.174Z,68.97
2019-03-15T22:01:08.707Z,68.81
2019-03-15T22:03:38.250Z,68.27
2019-03-15T22:06:07.695Z,68.47
2019-03-15T22:08:37.232Z,68.46
2019-03-15T22:11:20.128Z,68.36
2019-03-15T22:13:38.361Z,68.41
2019-03-15T22:16:07.863Z,69.13
2019-03-15T22:18:37.068Z,69.85
2019-03-15T22:21:06.592Z,69.65
2019-03-15T22:23:36.146Z,70.04
2019-03-15T22:26:06.584Z,70.62
2019-03-15T22:28:36.032Z,71.02
2019-03-15T22:31:15.860Z,71.67
2019-03-15T22:33:36.751Z,72.77
2019-03-15T22:36:06.384Z,73.59
2019-03-15T22:38:35.951Z,73.62
2019-03-15T22:41:05.409Z,73.54
2019-03-15T22:43:34.902Z,72.63
2019-03-15T22:46:04.417Z,72.97
2019-03-15T22:48:34.118Z,72.70
2019-03-15T22:51:03.772Z,72.35
2019-03-15T22:53:33.189Z,72.11
2019-03-15T22:56:02.770Z,72.64
2019-03-15T22:58:32.435Z,73.21
2019-03-15T23:01:02.009Z,73.62
2019-03-15T23:03:31.530Z,73.65
2019-03-15T23:06:01.079Z,73.96
2019-03-15T23:08:30.672Z,74.32
2019-03-15T23:11:00.203Z,74.78
2019-03-15T23:13:29.608Z,75.16
2019-03-15T23:15:59.160Z,75.47
2019-03-15T23:18:28.655Z,75.51
2019-03-15T23:20:58.279Z,75.47
2019-03-15T23:23:27.803Z,75.69
2019-03-15T23:25:57.266Z,75.44
2019-03-15T23:28:26.450Z,75.60
2019-03-15T23:30:56.002Z,75.61
2019-03-15T23:33:25.567Z,75.68
2019-03-15T23:35:55.212Z,75.89
2019-03-15T23:38:24.705Z,76.18
2019-03-15T23:40:56.102Z,76.72
2019-03-15T23:43:25.572Z,76.74
2019-03-15T23:45:55.373Z,76.48
2019-03-15T23:48:24.578Z,76.27
2019-03-15T23:50:54.107Z,76.35
2019-03-15T23:53:23.594Z,75.92
2019-03-15T23:55:54.879Z,76.45
2019-03-15T23:58:24.223Z,76.75
